• Join FlightAware (Why Join?)
  • Login
  • US Flag 
06:50PM EDT


 

Airport Tracker/Info


-or-


 

Live Flight TrackerFlight Track Log ✈ N900GT ✈ 16-May-2013 ✈ KFTW - KWDG

Flight Track Log - Related Links

Times and Time Zones

All times are in EDT time to prevent confusion due to time zone crossing. See the N900GT flight status page for this flight to view local times or setup timezone preferences in your user account.

Time Position Orientation Groundspeed Altitude Reporting Facility
EDT Latitude Longitude Course Direction KTS MPH feet Rate Location/Type
06:15PM 32.8000 -97.3500 157° South 133 153 1,000  Level Dallas / Fort Worth TRACON
06:16PM 32.7667 -97.3333 157° South 163 188 3,000 1,560 Climbing Dallas / Fort Worth TRACON
06:16PM 32.7792 -97.3194 43° Northeast 167 192 3,400 1,620 Climbing Fort Worth Center
06:17PM 32.8228 -97.3194 360° North 175 201 5,100 1,740 Climbing Fort Worth Center
06:18PM 32.8731 -97.3094 North 169 194 6,900 1,440 Climbing Fort Worth Center
06:19PM 32.9189 -97.2922 18° North 205 236 8,000 540 Climbing Fort Worth Center
06:20PM 32.9814 -97.2722 15° North 236 272 8,000  Level Fort Worth Center
06:21PM 33.0461 -97.2572 11° North 242 278 8,100 840 Climbing Fort Worth Center
06:22PM 33.1025 -97.2397 15° North 223 257 9,700 900 Climbing Fort Worth Center
06:23PM 33.1547 -97.2275 11° North 223 257 10,000 540 Climbing Fort Worth Center
06:24PM 33.2236 -97.2172 North 223 257 10,800 960 Climbing Fort Worth Center
06:25PM 33.2736 -97.2147 North 207 238 12,000 600 Climbing Fort Worth Center
06:26PM 33.3383 -97.2119 North 207 238 12,000  Level Fort Worth Center
06:27PM 33.3925 -97.2094 North 223 257 12,000  Level Fort Worth Center
06:28PM 33.4719 -97.2067 North 233 268 12,000  Level Fort Worth Center
06:29PM 33.5303 -97.2017 North 233 268 12,000  Level Fort Worth Center
06:30PM 33.6014 -97.1989 North 240 276 12,000 600 Level Fort Worth Center
06:31PM 33.6619 -97.1964 North 233 268 13,300 1,380 Climbing Fort Worth Center
06:32PM 33.7142 -97.1936 North 207 238 14,800 1,380 Climbing Fort Worth Center
06:33PM 33.7661 -97.1911 North 193 222 16,100 1,200 Climbing Fort Worth Center
06:34PM 33.8164 -97.1883 North 180 207 17,200 1,200 Climbing Fort Worth Center
06:35PM 33.8683 -97.1883 360° North 180 207 18,600 1,200 Climbing Fort Worth Center
06:36PM 33.9186 -97.1858 North 180 207 19,600 660 Climbing Fort Worth Center
06:37PM 33.9750 -97.1806 North 180 207 20,000 180 Climbing Fort Worth Center
06:38PM 34.0394 -97.1778 North 200 230 20,000  Level Fort Worth Center
06:39PM 34.1064 -97.1903 351° North 216 249 20,000  Level Fort Worth Center
06:40PM 34.1689 -97.2103 345° North 216 249 20,000  Level Fort Worth Center
06:41PM 34.2211 -97.2225 349° North 221 254 20,000  Level Fort Worth Center
06:42PM 34.2983 -97.2425 348° North 226 260 20,000  Level Fort Worth Center
06:43PM 34.3631 -97.2575 349° North 231 266 20,000  Level Fort Worth Center
06:44PM 34.4300 -97.2750 348° North 231 266 20,000  Level Fort Worth Center
06:45PM 34.4947 -97.2925 347° North 237 273 20,000  Level Fort Worth Center
06:46PM 34.5572 -97.3103 347° North 237 273 20,000  Level Fort Worth Center
06:47PM 34.6239 -97.3253 350° North 237 273 20,000  Level Fort Worth Center
06:48PM 34.6886 -97.3428 347° North 237 273 20,000  Level Fort Worth Center
06:49PM 34.7556 -97.3606 348° North 237 273 20,000  Level Fort Worth Center
06:50PM 34.8200 -97.3781 347° North 237 273 20,000  Level Fort Worth Center
06:51PM 34.8722 -97.3908 349° North 241 277 20,000  Level Fort Worth Center
06:52PM 34.9181 -97.4008 350° North 241 277 20,000  Level Fort Worth Center
06:52PM 34.9517 -97.4111 346° North 237 273 20,000  Level Fort Worth Center
06:53PM 34.9850 -97.4211 346° North 242 278 20,000  Level Fort Worth Center
06:53PM 35.0183 -97.4289 349° North 237 273 20,000  Level Fort Worth Center
06:54PM 35.0494 -97.4389 345° North 242 278 20,000  Level Fort Worth Center
06:54PM 35.0831 -97.4467 349° North 237 273 20,000  Level Fort Worth Center
06:55PM 35.1142 -97.4542 349° North 241 277 20,000  Level Fort Worth Center
06:55PM 35.1475 -97.4617 350° North 237 273 20,000  Level Fort Worth Center
06:56PM 35.1831 -97.4744 344° North 239 275 20,000  Level Fort Worth Center
06:56PM 35.2269 -97.4769 357° North 249 287 20,000 -540 Level Fort Worth Center
06:57PM 35.2519 -97.4897 337° Northwest 244 281 19,500 -1,020 Descending Fort Worth Center
06:57PM 35.2936 -97.5000 349° North 249 287 19,000 -1,020 Descending Fort Worth Center
06:58PM 35.3289 -97.5103 347° North 269 310 18,400 -1,380 Descending Fort Worth Center
06:58PM 35.3708 -97.5231 346° North 249 287 17,700 -1,200 Descending Fort Worth Center
06:59PM 35.4061 -97.5308 350° North 270 311 17,200 -1,020 Descending Fort Worth Center
06:59PM 35.4417 -97.5408 347° North 259 298 16,700 -960 Descending Fort Worth Center
07:00PM 35.4667 -97.5461 350° North 260 299 16,400 -1,020 Descending Fort Worth Center
07:00PM 35.5144 -97.5614 345° North 259 298 15,700 -1,140 Descending Fort Worth Center
07:01PM 35.5417 -97.5667 351° North 256 295 15,300 -720 Descending Fort Worth Center
07:01PM 35.5833 -97.5794 346° North 259 298 15,000 -300 Descending Fort Worth Center
07:02PM 35.6106 -97.5847 351° North 251 289 15,000  Level Fort Worth Center
07:02PM 35.6417 -97.5950 345° North 253 291 15,000  Level Fort Worth Center
07:03PM 35.6792 -97.6028 350° North 235 270 15,000  Level Fort Worth Center
07:03PM 35.7064 -97.6103 347° North 247 284 15,000 -300 Level Fort Worth Center
07:04PM 35.7542 -97.6233 347° North 236 272 14,700 -540 Descending Fort Worth Center
07:04PM 35.7731 -97.6286 347° North 241 277 14,500 -1,380 Descending Fort Worth Center
07:05PM 35.8231 -97.6439 346° North 251 289 13,300 -1,380 Descending Fort Worth Center
07:05PM 35.8417 -97.6467 353° North 241 277 13,100 -300 Descending Fort Worth Center
07:06PM 35.9036 -97.6614 349° North 248 285 13,000 -60 Descending Kansas City Center
07:07PM 35.9664 -97.6772 348° North 235 270 13,000  Level Kansas City Center
07:08PM 36.0286 -97.6942 348° North 230 265 13,000 -540 Level Kansas City Center
07:09PM 36.0925 -97.7122 347° North 233 268 12,000 -1,620 Descending Kansas City Center
07:10PM 36.1853 -97.7361 348° North 247 284 9,400 -2,400 Descending Kansas City Center
07:11PM 36.2403 -97.7519 347° North 246 283 7,100 -2,700 Descending Kansas City Center
07:13PM 36.3150 -97.7658 351° North 232 267 4,000 -1,980 Descending Kansas City Center
07:14PM 36.3731 -97.7542 North 200 230 2,800 -840 Descending Kansas City Center
07:14PM 36.4172 -97.7444 10° North 202 232 2,500 -660 Descending Kansas City Center
07:16PM 36.3964 -97.7906 241° Southwest 115 132 1,500 -900 Descending Kansas City Center